Time;durP1;ratioP1;P1;durP2;ratioP2;P2;SDS_P1;SDS_P2;PMS_P1;PMS_P2;Temp;Humidity;BMP_temperature;BMP_pressure;BME280_temperature;BME280_humidity;BME280_pressure;Samples;Min_cycle;Max_cycle;Signal;HPM_P1;HPM_P2
2023/09/23 00:00:15;;;;;;;7.50;6.87;;;12.10;1.00;;;;;;5014910;28;20374;-67
2023/09/23 00:02:43;;;;;;;6.40;5.90;;;12.10;1.00;;;;;;5015703;28;20192;-67
2023/09/23 00:05:11;;;;;;;7.07;6.47;;;12.10;1.00;;;;;;5015984;28;20460;-67
2023/09/23 00:07:40;;;;;;;7.23;6.63;;;12.10;1.00;;;;;;5015267;28;20760;-69
2023/09/23 00:10:09;;;;;;;5.93;5.50;;;12.10;1.00;;;;;;5014552;28;20866;-68
2023/09/23 00:12:41;;;;;;;8.03;7.43;;;12.00;1.00;;;;;;5014932;28;20432;-67
2023/09/23 00:15:12;;;;;;;7.47;6.87;;;12.00;1.00;;;;;;5015163;28;20404;-68
2023/09/23 00:17:39;;;;;;;7.53;6.80;;;12.00;1.00;;;;;;4997505;28;20438;-67
2023/09/23 00:20:14;;;;;;;7.73;6.90;;;12.00;1.00;;;;;;5014275;28;20454;-73
2023/09/23 00:22:47;;;;;;;6.67;6.20;;;12.00;1.00;;;;;;5015456;28;20415;-69
2023/09/23 00:25:13;;;;;;;6.93;6.43;;;11.90;1.00;;;;;;5014975;28;20378;-68
2023/09/23 00:27:41;;;;;;;6.90;6.37;;;11.90;1.00;;;;;;5015015;28;20478;-69
2023/09/23 00:30:07;;;;;;;8.23;7.40;;;11.90;1.00;;;;;;5013235;28;20445;-67
2023/09/23 00:32:33;;;;;;;7.83;7.20;;;11.90;1.00;;;;;;5015186;28;20424;-67
2023/09/23 00:35:00;;;;;;;8.17;7.27;;;11.90;1.00;;;;;;5015033;28;20407;-69
2023/09/23 00:37:27;;;;;;;9.33;8.63;;;11.80;1.00;;;;;;4997499;28;20473;-69
2023/09/23 00:39:53;;;;;;;9.10;7.90;;;11.80;1.00;;;;;;5014188;28;20452;-69
2023/09/23 00:42:19;;;;;;;8.10;7.40;;;11.80;1.00;;;;;;5014593;28;20394;-69
2023/09/23 00:45:22;;;;;;;7.90;7.40;;;11.80;1.00;;;;;;5015131;28;20734;-68
2023/09/23 00:47:48;;;;;;;8.40;7.70;;;11.80;1.00;;;;;;5013709;28;20431;-70
2023/09/23 00:50:22;;;;;;;7.27;6.77;;;11.80;1.00;;;;;;5011598;28;21421;-71
2023/09/23 00:52:53;;;;;;;9.03;7.37;;;11.80;1.00;;;;;;5013942;28;20458;-70
2023/09/23 00:55:20;;;;;;;8.67;7.83;;;11.80;1.00;;;;;;5014776;28;20392;-69
2023/09/23 00:57:52;;;;;;;9.10;8.20;;;11.90;3.20;;;;;;5014620;28;20838;-67
2023/09/23 01:00:27;;;;;;;9.40;7.60;;;11.90;8.50;;;;;;5013714;28;20374;-69
2023/09/23 01:02:55;;;;;;;8.10;7.50;;;11.90;15.40;;;;;;5014171;28;20778;-70
2023/09/23 01:05:23;;;;;;;8.60;8.00;;;12.00;20.80;;;;;;5014394;28;20764;-68
2023/09/23 01:07:49;;;;;;;8.30;7.60;;;12.00;25.90;;;;;;5014401;28;20382;-71
2023/09/23 01:10:17;;;;;;;9.03;8.13;;;12.10;31.90;;;;;;5013192;28;20392;-69
2023/09/23 01:12:45;;;;;;;8.87;7.97;;;12.10;38.90;;;;;;4996813;28;20196;-74
2023/09/23 01:15:12;;;;;;;7.83;7.23;;;12.20;49.40;;;;;;5014546;28;20438;-67
2023/09/23 01:17:39;;;;;;;9.90;9.00;;;12.20;60.40;;;;;;5014255;28;20366;-69
2023/09/23 01:20:09;;;;;;;9.20;8.40;;;12.20;67.30;;;;;;5012721;28;20428;-73
2023/09/23 01:22:36;;;;;;;9.30;8.50;;;12.30;72.50;;;;;;4996550;28;20906;-67
2023/09/23 01:25:02;;;;;;;10.13;9.00;;;12.30;78.80;;;;;;5013110;28;20374;-67
2023/09/23 01:27:28;;;;;;;9.97;9.07;;;12.40;88.60;;;;;;5014035;28;20399;-69
2023/09/23 01:29:54;;;;;;;10.27;9.13;;;12.40;92.90;;;;;;5013087;28;20441;-67
2023/09/23 01:32:46;;;;;;;8.83;8.03;;;12.50;92.90;;;;;;4996309;28;20337;-67
2023/09/23 01:35:16;;;;;;;9.70;8.80;;;12.50;92.90;;;;;;4996509;28;20428;-68
2023/09/23 01:37:44;;;;;;;9.50;8.10;;;12.60;93.00;;;;;;4995911;28;20419;-69
2023/09/23 01:40:16;;;;;;;8.97;8.20;;;12.60;93.00;;;;;;5012924;28;20407;-69
2023/09/23 01:42:43;;;;;;;9.57;8.60;;;12.60;93.00;;;;;;5013693;28;20443;-68
2023/09/23 01:45:10;;;;;;;8.43;7.73;;;12.70;96.00;;;;;;5013916;28;20377;-69
2023/09/23 01:47:37;;;;;;;8.87;7.97;;;12.70;99.90;;;;;;5013924;28;20761;-69
2023/09/23 01:50:03;;;;;;;9.87;9.07;;;12.80;99.90;;;;;;5012885;28;20762;-75
2023/09/23 01:52:32;;;;;;;9.63;8.80;;;12.80;99.90;;;;;;5013773;28;20480;-67
2023/09/23 01:54:58;;;;;;;9.27;8.47;;;12.80;99.90;;;;;;5013526;28;20752;-67
2023/09/23 01:57:24;;;;;;;8.97;8.17;;;12.90;99.90;;;;;;5013039;28;20395;-70
2023/09/23 01:59:49;;;;;;;8.97;8.23;;;12.90;99.90;;;;;;5012798;28;20528;-67
2023/09/23 02:02:17;;;;;;;10.03;9.00;;;12.90;99.90;;;;;;5013496;28;20188;-68
2023/09/23 02:04:43;;;;;;;10.37;9.23;;;12.90;99.90;;;;;;5013601;28;20218;-68
2023/09/23 02:07:10;;;;;;;10.00;9.10;;;13.00;99.90;;;;;;5013614;28;20395;-69
2023/09/23 02:09:39;;;;;;;10.00;9.10;;;13.00;99.90;;;;;;5012501;28;20234;-68
2023/09/23 02:12:05;;;;;;;10.07;9.27;;;13.00;99.90;;;;;;4995691;28;20470;-72
2023/09/23 02:14:30;;;;;;;10.70;9.80;;;13.00;99.90;;;;;;5013018;28;20434;-67
2023/09/23 02:16:57;;;;;;;10.27;9.37;;;13.00;99.90;;;;;;5013255;28;20636;-68
2023/09/23 02:19:27;;;;;;;10.10;9.20;;;13.00;99.90;;;;;;5012987;28;20196;-74
2023/09/23 02:21:53;;;;;;;10.27;9.37;;;13.10;99.90;;;;;;5012700;28;20970;-69
2023/09/23 02:24:19;;;;;;;10.10;9.27;;;13.10;99.90;;;;;;5013108;28;20404;-67
2023/09/23 02:26:48;;;;;;;10.00;9.03;;;13.20;99.90;;;;;;5013202;28;20156;-68
2023/09/23 02:29:15;;;;;;;9.47;8.67;;;13.20;99.90;;;;;;5013239;28;20203;-68
2023/09/23 02:31:49;;;;;;;10.10;9.20;;;13.20;99.90;;;;;;5011832;28;20953;-68
2023/09/23 02:34:16;;;;;;;9.90;8.93;;;13.20;99.90;;;;;;5013107;28;20807;-67
2023/09/23 02:36:43;;;;;;;9.50;8.77;;;13.20;99.90;;;;;;5012874;28;20427;-69
2023/09/23 02:39:15;;;;;;;10.37;9.57;;;13.20;99.90;;;;;;5012859;28;20458;-69
2023/09/23 02:41:42;;;;;;;9.20;8.47;;;13.20;99.90;;;;;;5012370;28;20459;-69
2023/09/23 02:44:08;;;;;;;10.33;9.43;;;13.20;99.90;;;;;;5012922;28;20406;-67
2023/09/23 02:46:34;;;;;;;10.67;9.77;;;13.20;99.90;;;;;;4995505;28;20385;-67
2023/09/23 02:49:00;;;;;;;9.67;8.77;;;13.10;99.90;;;;;;5012844;28;20176;-67
2023/09/23 02:51:26;;;;;;;10.50;9.60;;;13.10;99.90;;;;;;5009938;28;20520;-69
2023/09/23 02:53:51;;;;;;;12.20;11.00;;;13.10;99.90;;;;;;4995412;28;20684;-65
2023/09/23 02:56:18;;;;;;;12.03;10.93;;;13.00;99.90;;;;;;5012966;28;20176;-65
2023/09/23 02:58:44;;;;;;;21.50;13.23;;;13.00;99.90;;;;;;5012865;28;20284;-67
2023/09/23 03:01:14;;;;;;;15.43;12.40;;;12.90;99.90;;;;;;5011884;28;20428;-66
2023/09/23 03:03:40;;;;;;;15.73;12.40;;;12.90;99.90;;;;;;5012792;28;20946;-66
2023/09/23 03:06:10;;;;;;;14.30;12.80;;;12.90;99.90;;;;;;4979111;28;20455;-69
2023/09/23 03:08:39;;;;;;;14.37;12.97;;;12.90;99.90;;;;;;5012426;28;20453;-68
2023/09/23 03:11:09;;;;;;;14.50;12.30;;;12.90;99.90;;;;;;5011844;28;20408;-67
2023/09/23 03:13:36;;;;;;;16.27;13.13;;;12.90;99.90;;;;;;4995554;28;20403;-66
2023/09/23 03:16:09;;;;;;;15.30;13.43;;;12.90;99.90;;;;;;5012726;28;20913;-67
2023/09/23 03:18:54;;;;;;;14.93;12.80;;;13.00;99.90;;;;;;5012731;28;20421;-66
2023/09/23 03:21:20;;;;;;;15.97;12.43;;;13.00;99.90;;;;;;4994136;28;20807;-68
2023/09/23 03:23:46;;;;;;;14.87;13.23;;;12.90;99.90;;;;;;5012674;28;20403;-66
2023/09/23 03:26:11;;;;;;;19.33;14.00;;;13.00;99.90;;;;;;5012114;28;20198;-66
2023/09/23 03:28:42;;;;;;;14.87;13.40;;;13.00;99.90;;;;;;5012740;28;20168;-65
2023/09/23 03:31:08;;;;;;;18.30;14.63;;;13.00;99.90;;;;;;5011639;28;20226;-67
2023/09/23 03:33:34;;;;;;;13.97;12.37;;;13.00;99.90;;;;;;5012464;28;20378;-67
2023/09/23 03:36:00;;;;;;;15.23;13.73;;;13.10;99.90;;;;;;4995334;28;20404;-66
2023/09/23 03:38:28;;;;;;;15.60;14.10;;;13.10;99.90;;;;;;5012508;28;20500;-66
2023/09/23 03:40:56;;;;;;;15.07;13.47;;;13.10;99.90;;;;;;5011614;28;20280;-66
2023/09/23 03:43:22;;;;;;;18.67;15.07;;;13.20;99.90;;;;;;5012326;28;20403;-69
2023/09/23 03:45:48;;;;;;;15.27;13.43;;;13.20;99.90;;;;;;5012247;28;20394;-66
2023/09/23 03:48:14;;;;;;;16.90;14.30;;;13.20;99.90;;;;;;5013763;28;20648;-66
2023/09/23 03:50:40;;;;;;;16.50;13.90;;;13.20;99.90;;;;;;5015072;28;20680;-65
2023/09/23 03:53:06;;;;;;;15.37;13.40;;;13.10;99.90;;;;;;5015985;28;20405;-68
2023/09/23 03:55:32;;;;;;;16.33;13.23;;;13.10;99.90;;;;;;5015951;28;20169;-65
2023/09/23 03:57:57;;;;;;;16.27;14.00;;;13.10;99.90;;;;;;5015869;28;20636;-65
2023/09/23 04:00:27;;;;;;;17.17;15.13;;;13.10;99.90;;;;;;5014699;28;20251;-66
2023/09/23 04:02:53;;;;;;;18.50;14.83;;;13.10;99.90;;;;;;5015429;28;20395;-67
2023/09/23 04:05:20;;;;;;;18.23;14.40;;;13.10;99.90;;;;;;5015860;28;20462;-67
2023/09/23 04:07:49;;;;;;;16.77;14.90;;;13.00;99.90;;;;;;5015650;28;20388;-66
2023/09/23 04:10:18;;;;;;;20.60;14.10;;;13.00;99.90;;;;;;5014750;28;20410;-66
2023/09/23 04:12:43;;;;;;;18.93;14.90;;;13.10;99.90;;;;;;5015368;28;20419;-66
2023/09/23 04:15:09;;;;;;;16.80;15.00;;;13.10;99.90;;;;;;5015628;28;20401;-68
2023/09/23 04:17:37;;;;;;;23.23;17.70;;;13.10;99.90;;;;;;5015134;28;20400;-66
2023/09/23 04:20:10;;;;;;;16.23;14.50;;;13.10;99.90;;;;;;5014429;28;20855;-66
2023/09/23 04:22:41;;;;;;;17.03;14.50;;;13.10;99.90;;;;;;5015428;28;20419;-67
2023/09/23 04:25:08;;;;;;;18.20;12.93;;;13.10;99.90;;;;;;5015333;28;20391;-70
2023/09/23 04:27:36;;;;;;;17.83;13.30;;;13.10;99.90;;;;;;5015351;28;20443;-65
2023/09/23 04:30:09;;;;;;;17.77;13.00;;;13.10;99.90;;;;;;5014527;28;20742;-70
2023/09/23 04:32:44;;;;;;;17.80;13.47;;;13.10;99.90;;;;;;5015362;28;20426;-67
2023/09/23 04:35:14;;;;;;;19.23;13.97;;;13.10;99.90;;;;;;5015249;28;20468;-66
2023/09/23 04:37:40;;;;;;;16.93;12.90;;;13.10;1.00;;;;;;5014542;28;20403;-68
2023/09/23 04:40:10;;;;;;;26.00;19.57;;;13.20;1.00;;;;;;5013633;28;20454;-68
2023/09/23 04:42:43;;;;;;;18.90;12.97;;;13.20;1.00;;;;;;5015012;28;20423;-65
2023/09/23 04:45:10;;;;;;;17.40;13.93;;;13.20;1.00;;;;;;5015059;28;20412;-66
2023/09/23 04:47:40;;;;;;;15.20;13.30;;;13.20;1.00;;;;;;5014820;28;20403;-67
2023/09/23 04:50:08;;;;;;;14.77;12.00;;;13.30;1.00;;;;;;5013812;28;20411;-72
2023/09/23 04:52:35;;;;;;;14.17;12.77;;;13.20;1.00;;;;;;5014876;28;20758;-66
2023/09/23 04:55:02;;;;;;;15.00;12.53;;;13.20;1.00;;;;;;5014777;28;20396;-68
2023/09/23 04:57:27;;;;;;;13.93;12.43;;;13.30;1.00;;;;;;5014195;28;20928;-66
2023/09/23 04:59:54;;;;;;;16.83;13.43;;;13.20;1.00;;;;;;5013744;28;20461;-66
2023/09/23 05:02:20;;;;;;;14.87;13.30;;;13.20;1.00;;;;;;5014415;28;20250;-66
2023/09/23 05:04:46;;;;;;;16.87;13.90;;;13.20;1.00;;;;;;5014513;28;20888;-68
2023/09/23 05:07:13;;;;;;;13.97;12.60;;;13.20;1.00;;;;;;5014753;28;20399;-67
2023/09/23 05:09:42;;;;;;;13.87;12.43;;;13.20;1.00;;;;;;5013611;28;20432;-67
2023/09/23 05:12:11;;;;;;;18.30;13.43;;;13.20;1.00;;;;;;5014454;28;20732;-65
2023/09/23 05:14:39;;;;;;;13.77;12.37;;;13.20;1.00;;;;;;5014476;28;20377;-66
2023/09/23 05:17:05;;;;;;;14.67;12.97;;;13.20;1.00;;;;;;5013839;28;20426;-67
2023/09/23 05:19:34;;;;;;;15.77;14.07;;;13.30;1.00;;;;;;5013871;28;20464;-71
2023/09/23 05:22:01;;;;;;;19.73;14.93;;;13.20;1.00;;;;;;5014478;28;20212;-66
2023/09/23 05:24:27;;;;;;;17.60;13.20;;;13.30;1.00;;;;;;5014117;28;20870;-66
2023/09/23 05:26:55;;;;;;;14.90;12.77;;;13.30;1.00;;;;;;5014228;28;20392;-67
2023/09/23 05:29:23;;;;;;;14.93;13.33;;;13.30;1.00;;;;;;5014132;28;20514;-71
2023/09/23 05:31:49;;;;;;;20.00;14.07;;;13.30;1.00;;;;;;5013370;28;20887;-68
2023/09/23 05:34:16;;;;;;;16.67;13.63;;;13.30;1.00;;;;;;5013844;28;20453;-66
2023/09/23 05:36:42;;;;;;;12.80;11.43;;;13.20;1.00;;;;;;5013680;28;20382;-68
2023/09/23 05:39:08;;;;;;;15.47;13.77;;;13.10;1.00;;;;;;5013960;28;20465;-65
2023/09/23 05:41:34;;;;;;;16.60;14.67;;;13.10;1.00;;;;;;5013018;28;20763;-67
2023/09/23 05:43:59;;;;;;;14.60;12.80;;;13.10;1.00;;;;;;5013976;28;20172;-67
2023/09/23 05:46:27;;;;;;;14.80;12.33;;;13.10;1.00;;;;;;5013751;28;20177;-67
2023/09/23 05:48:53;;;;;;;18.00;13.17;;;13.10;1.00;;;;;;5013751;28;20195;-65
2023/09/23 05:51:19;;;;;;;15.70;12.60;;;13.20;1.00;;;;;;4994937;28;20951;-67
2023/09/23 05:53:45;;;;;;;18.30;12.10;;;13.20;1.00;;;;;;5013755;28;20222;-66
2023/09/23 05:56:11;;;;;;;15.67;12.43;;;13.20;1.00;;;;;;5013782;28;20795;-67
2023/09/23 05:58:37;;;;;;;17.10;14.07;;;13.20;1.00;;;;;;5013702;28;20192;-67
2023/09/23 06:01:03;;;;;;;13.33;11.07;;;13.20;1.00;;;;;;5012617;28;20934;-65
2023/09/23 06:03:29;;;;;;;12.83;11.53;;;13.20;1.00;;;;;;4996033;28;20576;-65
2023/09/23 06:05:55;;;;;;;13.70;11.80;;;13.20;1.00;;;;;;5013772;28;20378;-65
2023/09/23 06:08:21;;;;;;;14.33;11.53;;;13.30;1.00;;;;;;5013569;28;20758;-65
2023/09/23 06:10:47;;;;;;;12.93;11.63;;;13.30;1.00;;;;;;5011349;28;20434;-65
2023/09/23 06:13:13;;;;;;;11.37;10.10;;;13.30;1.00;;;;;;5013401;28;20180;-65
2023/09/23 06:15:39;;;;;;;13.17;10.10;;;13.40;1.00;;;;;;5013467;28;20849;-65
2023/09/23 06:18:07;;;;;;;13.20;11.40;;;13.30;1.00;;;;;;5013418;28;20528;-67
2023/09/23 06:20:33;;;;;;;12.73;11.40;;;13.40;1.00;;;;;;5012678;28;20184;-69
2023/09/23 06:22:59;;;;;;;12.23;11.03;;;13.40;1.00;;;;;;5013260;28;20378;-68
2023/09/23 06:25:25;;;;;;;11.43;9.20;;;13.50;1.00;;;;;;5013357;28;20414;-66
2023/09/23 06:27:51;;;;;;;14.23;10.10;;;13.50;1.00;;;;;;5013037;28;20737;-67
2023/09/23 06:30:17;;;;;;;12.17;9.23;;;13.50;1.00;;;;;;5012579;28;20223;-65
2023/09/23 06:32:44;;;;;;;9.43;8.43;;;13.50;1.00;;;;;;5013399;28;20555;-67
2023/09/23 06:35:11;;;;;;;11.00;9.57;;;13.40;1.00;;;;;;5013224;28;20447;-65
2023/09/23 06:37:37;;;;;;;11.63;8.87;;;13.40;1.00;;;;;;5013264;28;20386;-67
2023/09/23 06:40:03;;;;;;;10.43;8.33;;;13.40;1.00;;;;;;5012218;28;20521;-70
2023/09/23 06:42:29;;;;;;;9.10;8.20;;;13.50;1.00;;;;;;5013134;28;20466;-67
2023/09/23 06:44:55;;;;;;;8.30;7.50;;;13.40;1.00;;;;;;5013001;28;20374;-65
2023/09/23 06:47:21;;;;;;;11.73;7.33;;;13.50;1.00;;;;;;5012547;28;20434;-66
2023/09/23 06:49:47;;;;;;;8.17;7.37;;;13.50;1.00;;;;;;5012356;28;20183;-65
2023/09/23 06:52:12;;;;;;;12.40;8.70;;;13.50;1.00;;;;;;5012903;28;20330;-67
2023/09/23 06:54:38;;;;;;;8.83;7.93;;;13.50;1.00;;;;;;4995580;28;20267;-65
2023/09/23 06:57:04;;;;;;;13.83;9.47;;;13.60;1.00;;;;;;5012946;28;20271;-65
2023/09/23 06:59:30;;;;;;;10.47;8.53;;;13.50;1.00;;;;;;5012453;28;20516;-65
2023/09/23 07:01:56;;;;;;;11.17;9.43;;;13.50;1.00;;;;;;5012344;28;20196;-65
2023/09/23 07:04:21;;;;;;;12.17;9.40;;;13.50;1.00;;;;;;5013071;28;20249;-65
2023/09/23 07:06:47;;;;;;;15.90;9.47;;;13.50;1.00;;;;;;5012482;28;20625;-68
2023/09/23 07:09:13;;;;;;;14.13;11.23;;;13.60;1.00;;;;;;5012990;28;20168;-65
2023/09/23 07:11:40;;;;;;;11.47;9.97;;;13.50;1.00;;;;;;5011982;28;20416;-64
2023/09/23 07:14:06;;;;;;;15.30;11.13;;;13.50;1.00;;;;;;5012817;28;20450;-71
2023/09/23 07:16:33;;;;;;;14.07;11.73;;;13.50;1.00;;;;;;5013141;28;20411;-67
2023/09/23 07:19:00;;;;;;;14.13;11.73;;;13.50;1.00;;;;;;5012631;28;20479;-67
2023/09/23 07:21:26;;;;;;;13.87;12.00;;;13.60;1.00;;;;;;5011724;28;20406;-68
2023/09/23 07:23:51;;;;;;;15.20;11.13;;;13.70;1.00;;;;;;5015481;28;20444;-64
2023/09/23 07:26:21;;;;;;;16.00;10.50;;;13.60;1.00;;;;;;5016094;28;20409;-65
2023/09/23 07:28:50;;;;;;;12.17;10.73;;;13.70;1.00;;;;;;5016621;28;20169;-65
2023/09/23 07:31:16;;;;;;;13.80;11.03;;;13.80;1.00;;;;;;5015573;28;20485;-67
2023/09/23 07:33:42;;;;;;;12.10;10.83;;;13.80;1.00;;;;;;5016308;28;20441;-66
2023/09/23 07:36:12;;;;;;;13.07;10.00;;;13.90;1.00;;;;;;5016287;28;20825;-67
2023/09/23 07:38:38;;;;;;;13.70;10.50;;;13.90;1.00;;;;;;5016353;28;20200;-65
2023/09/23 07:41:04;;;;;;;12.30;10.80;;;13.90;1.00;;;;;;5015352;28;20430;-65
2023/09/23 07:43:30;;;;;;;13.70;11.63;;;13.90;1.00;;;;;;5015492;28;20442;-65
2023/09/23 07:45:55;;;;;;;15.63;11.70;;;13.90;1.00;;;;;;5016251;28;20510;-64
2023/09/23 07:48:21;;;;;;;11.07;9.97;;;13.90;1.00;;;;;;5016173;28;20168;-65
2023/09/23 07:50:47;;;;;;;11.30;9.80;;;14.00;1.00;;;;;;5015377;28;20676;-65
2023/09/23 07:53:12;;;;;;;12.47;11.03;;;14.00;1.00;;;;;;5016243;28;20172;-67
2023/09/23 07:55:38;;;;;;;11.13;10.00;;;14.10;1.00;;;;;;5015860;28;20176;-68
2023/09/23 07:58:05;;;;;;;11.33;10.07;;;14.20;1.00;;;;;;5015997;28;20234;-64
2023/09/23 08:00:30;;;;;;;13.60;10.63;;;14.30;1.00;;;;;;5015451;28;20374;-67
2023/09/23 08:02:56;;;;;;;11.27;9.93;;;14.40;1.00;;;;;;5015542;28;20767;-68
2023/09/23 08:05:23;;;;;;;18.10;9.80;;;14.40;1.00;;;;;;5015532;28;20187;-68
2023/09/23 08:07:51;;;;;;;11.10;9.97;;;14.40;1.00;;;;;;5015831;28;20210;-65
2023/09/23 08:10:17;;;;;;;10.70;9.50;;;14.50;1.00;;;;;;5015579;28;20395;-66
2023/09/23 08:12:44;;;;;;;11.40;9.10;;;14.60;1.00;;;;;;5015714;28;20418;-68
2023/09/23 08:15:11;;;;;;;9.07;6.80;;;14.60;1.00;;;;;;5015771;28;20399;-64
2023/09/23 08:17:38;;;;;;;8.13;7.30;;;14.70;99.90;;;;;;5015582;28;20411;-65
2023/09/23 08:20:17;;;;;;;8.80;7.90;;;14.70;99.90;;;;;;5014840;28;20491;-65
2023/09/23 08:22:44;;;;;;;9.07;7.80;;;14.70;99.90;;;;;;5015396;28;20400;-68
2023/09/23 08:25:10;;;;;;;7.57;6.87;;;14.70;99.90;;;;;;5015272;28;20419;-64
2023/09/23 08:27:37;;;;;;;10.27;6.77;;;14.80;99.90;;;;;;5015460;28;20495;-68
2023/09/23 08:30:05;;;;;;;11.00;7.50;;;14.90;99.90;;;;;;5014843;28;20411;-67
2023/09/23 08:32:31;;;;;;;6.87;6.27;;;15.00;99.90;;;;;;5015570;28;20439;-65
2023/09/23 08:34:56;;;;;;;7.07;6.40;;;15.10;99.90;;;;;;5014780;28;20411;-65
2023/09/23 08:37:22;;;;;;;7.93;6.33;;;15.20;99.90;;;;;;4997930;28;20230;-68
2023/09/23 08:39:48;;;;;;;6.93;6.23;;;15.20;99.90;;;;;;5014399;28;20211;-66
2023/09/23 08:42:42;;;;;;;5.80;5.20;;;15.20;99.90;;;;;;5014791;28;20423;-66
2023/09/23 08:45:09;;;;;;;5.50;5.03;;;15.20;99.90;;;;;;5015018;28;20404;-67
2023/09/23 08:47:38;;;;;;;5.53;5.13;;;15.10;99.90;;;;;;5015026;28;20398;-68
2023/09/23 08:50:10;;;;;;;5.83;4.07;;;15.00;99.90;;;;;;5014099;28;20419;-69
2023/09/23 08:52:37;;;;;;;4.07;3.67;;;14.90;99.90;;;;;;5015242;28;20439;-67
2023/09/23 08:55:04;;;;;;;3.30;3.10;;;14.90;99.90;;;;;;5014853;28;20403;-67
2023/09/23 08:57:33;;;;;;;1.90;1.80;;;14.70;99.90;;;;;;5014788;28;20407;-68
2023/09/23 08:59:59;;;;;;;3.57;1.53;;;14.70;99.90;;;;;;5014029;28;20513;-68
2023/09/23 09:02:25;;;;;;;1.40;1.30;;;14.50;99.90;;;;;;5014072;28;20431;-66
2023/09/23 09:04:55;;;;;;;1.57;1.20;;;14.50;99.90;;;;;;5014732;28;20191;-65
2023/09/23 09:07:39;;;;;;;3.87;1.30;;;14.50;99.90;;;;;;5014893;28;20407;-68
2023/09/23 09:10:06;;;;;;;2.70;1.20;;;14.50;99.90;;;;;;5013955;28;20823;-66
2023/09/23 09:12:33;;;;;;;3.10;1.20;;;14.60;99.90;;;;;;5014532;28;20427;-67
2023/09/23 09:14:59;;;;;;;1.10;1.00;;;14.60;99.90;;;;;;4996884;28;20528;-65
2023/09/23 09:17:25;;;;;;;1.40;1.30;;;14.70;99.90;;;;;;5014449;28;20430;-66
2023/09/23 09:19:51;;;;;;;2.20;0.90;;;14.80;99.90;;;;;;5013986;28;20462;-65
2023/09/23 09:22:20;;;;;;;1.93;1.10;;;15.10;99.90;;;;;;5013582;28;20192;-65
2023/09/23 09:24:49;;;;;;;1.10;0.90;;;15.60;99.90;;;;;;5014319;28;20572;-72
2023/09/23 09:27:15;;;;;;;1.10;0.90;;;16.10;99.90;;;;;;4996786;28;20916;-65
2023/09/23 09:29:42;;;;;;;1.17;1.03;;;16.50;99.90;;;;;;5013797;28;20422;-68
2023/09/23 09:32:11;;;;;;;1.30;1.10;;;17.00;99.90;;;;;;5014150;28;20430;-65
2023/09/23 09:34:47;;;;;;;1.00;0.80;;;17.40;99.70;;;;;;5014217;28;20419;-65
2023/09/23 09:37:15;;;;;;;1.30;0.97;;;17.60;76.00;;;;;;5014342;28;20460;-68
2023/09/23 09:39:51;;;;;;;2.23;1.10;;;17.50;28.20;;;;;;5012735;28;20478;-66
2023/09/23 09:42:25;;;;;;;2.20;1.10;;;17.30;7.30;;;;;;5014110;28;20431;-68
2023/09/23 09:44:54;;;;;;;1.80;1.10;;;17.10;1.00;;;;;;5013658;28;20518;-68
2023/09/23 09:47:20;;;;;;;3.67;1.03;;;16.80;1.00;;;;;;5013871;28;20535;-67
2023/09/23 09:49:48;;;;;;;4.73;0.90;;;16.80;1.00;;;;;;5013255;28;20411;-68
2023/09/23 09:52:14;;;;;;;3.47;1.07;;;17.00;1.00;;;;;;5013591;28;20490;-69
2023/09/23 09:54:41;;;;;;;1.97;0.90;;;17.20;1.00;;;;;;5013810;28;20505;-65
2023/09/23 09:57:07;;;;;;;1.67;1.27;;;17.00;1.00;;;;;;5013298;28;20415;-65
2023/09/23 09:59:35;;;;;;;2.33;1.10;;;17.00;1.00;;;;;;5013092;28;20466;-67
2023/09/23 10:02:04;;;;;;;2.30;1.00;;;17.20;1.00;;;;;;5013731;28;20454;-70
2023/09/23 10:04:33;;;;;;;1.20;0.90;;;17.40;1.00;;;;;;5013598;28;20418;-69
2023/09/23 10:07:00;;;;;;;2.13;1.30;;;17.50;1.00;;;;;;5013488;28;20970;-65
2023/09/23 10:09:29;;;;;;;3.00;1.10;;;17.70;1.00;;;;;;5013422;28;20549;-70
2023/09/23 10:11:58;;;;;;;1.40;0.90;;;17.90;1.00;;;;;;5012973;28;20943;-66
2023/09/23 10:14:24;;;;;;;1.10;0.97;;;17.70;1.00;;;;;;4995507;28;20411;-64
2023/09/23 10:16:59;;;;;;;2.50;0.93;;;17.70;1.00;;;;;;5013340;28;20906;-64
2023/09/23 10:19:38;;;;;;;1.10;0.87;;;17.90;1.00;;;;;;5013097;28;20446;-66
2023/09/23 10:22:20;;;;;;;3.37;1.60;;;18.00;1.00;;;;;;5013317;28;20531;-67
2023/09/23 10:24:56;;;;;;;2.27;1.07;;;17.70;1.00;;;;;;5013220;28;20465;-66
2023/09/23 10:27:24;;;;;;;1.60;1.47;;;17.40;1.00;;;;;;5013469;28;20407;-65
2023/09/23 10:29:50;;;;;;;2.97;1.03;;;17.30;1.00;;;;;;5012756;28;20407;-65
2023/09/23 10:32:17;;;;;;;1.67;1.00;;;17.40;1.00;;;;;;4995372;28;20939;-68
2023/09/23 10:34:47;;;;;;;4.10;1.10;;;17.90;1.00;;;;;;5012892;28;20799;-68
2023/09/23 10:37:15;;;;;;;2.50;1.07;;;18.60;1.00;;;;;;4995656;28;20415;-67
2023/09/23 10:39:44;;;;;;;1.20;1.00;;;19.30;1.00;;;;;;5012457;28;20540;-65
2023/09/23 10:42:14;;;;;;;1.87;0.80;;;20.10;1.00;;;;;;5013109;28;20419;-65
2023/09/23 10:44:40;;;;;;;1.63;1.00;;;20.70;1.00;;;;;;5013348;28;20399;-68
2023/09/23 10:47:05;;;;;;;1.57;1.00;;;20.60;1.00;;;;;;5013051;28;20403;-67
2023/09/23 10:49:31;;;;;;;1.53;0.80;;;20.40;1.00;;;;;;5012685;28;20172;-73
2023/09/23 10:51:57;;;;;;;3.50;0.83;;;20.00;1.00;;;;;;5012243;28;20219;-68
2023/09/23 10:54:24;;;;;;;4.23;0.97;;;19.50;1.00;;;;;;4995464;28;20699;-66
2023/09/23 10:56:52;;;;;;;1.93;1.10;;;19.20;1.00;;;;;;4996152;28;20411;-65
2023/09/23 10:59:18;;;;;;;1.10;0.90;;;18.80;1.00;;;;;;5016870;28;20800;-67
2023/09/23 11:01:45;;;;;;;2.60;0.90;;;18.60;1.00;;;;;;5016387;28;20426;-65
2023/09/23 11:04:11;;;;;;;2.47;0.90;;;18.60;1.00;;;;;;5016958;28;20405;-66
2023/09/23 11:06:37;;;;;;;3.87;0.70;;;18.70;1.00;;;;;;5017086;28;20884;-69
2023/09/23 11:09:05;;;;;;;5.73;1.00;;;18.70;1.00;;;;;;5016006;28;20414;-70
2023/09/23 11:11:36;;;;;;;1.30;0.70;;;18.60;1.00;;;;;;5015107;28;20496;-67
2023/09/23 11:14:11;;;;;;;1.40;0.90;;;18.50;1.00;;;;;;4999735;28;20454;-73
2023/09/23 11:16:37;;;;;;;1.20;0.90;;;18.40;1.00;;;;;;5016980;28;20410;-67
2023/09/23 11:19:07;;;;;;;2.33;1.50;;;18.10;1.00;;;;;;4982979;28;20473;-68
2023/09/23 11:21:44;;;;;;;1.00;0.80;;;17.90;1.00;;;;;;5015729;28;20430;-66
2023/09/23 11:24:10;;;;;;;1.60;0.90;;;17.90;1.00;;;;;;5016642;28;21091;-67
2023/09/23 11:26:41;;;;;;;1.77;1.00;;;18.00;1.00;;;;;;5016217;28;20411;-66
2023/09/23 11:29:10;;;;;;;2.17;0.90;;;18.20;1.00;;;;;;5016438;28;20426;-68
2023/09/23 11:31:36;;;;;;;4.37;0.93;;;18.40;1.00;;;;;;5015481;28;20543;-68
2023/09/23 11:34:03;;;;;;;4.73;1.20;;;18.70;1.00;;;;;;5016665;28;20435;-74
2023/09/23 11:36:30;;;;;;;2.03;0.90;;;18.80;1.00;;;;;;4998924;28;20266;-67
2023/09/23 11:38:56;;;;;;;1.30;1.10;;;18.90;1.00;;;;;;4998734;28;20541;-65
2023/09/23 11:41:24;;;;;;;4.07;0.90;;;18.90;1.00;;;;;;4997729;28;20535;-70
2023/09/23 11:43:51;;;;;;;1.97;1.10;;;19.00;1.00;;;;;;5016103;28;20411;-67
2023/09/23 11:46:19;;;;;;;1.20;0.90;;;19.10;1.00;;;;;;4998400;28;20422;-67
2023/09/23 11:48:48;;;;;;;1.60;1.27;;;19.30;1.00;;;;;;4999045;28;20695;-68
2023/09/23 11:51:17;;;;;;;2.90;1.50;;;19.20;1.00;;;;;;5015338;28;21164;-66
2023/09/23 11:53:45;;;;;;;1.57;0.90;;;19.40;1.00;;;;;;4999105;28;20419;-67
2023/09/23 11:56:12;;;;;;;3.20;1.10;;;19.50;1.00;;;;;;4997834;28;20407;-67
2023/09/23 11:58:39;;;;;;;3.00;1.17;;;19.60;1.00;;;;;;4998492;28;20465;-66
2023/09/23 12:01:06;;;;;;;2.00;0.80;;;19.60;1.00;;;;;;4997098;28;20446;-66
2023/09/23 12:03:34;;;;;;;1.23;0.90;;;19.90;1.00;;;;;;4998002;28;20426;-70
2023/09/23 12:06:01;;;;;;;1.60;0.90;;;20.00;1.00;;;;;;4998509;28;20506;-67
2023/09/23 12:08:27;;;;;;;2.40;1.20;;;20.20;1.00;;;;;;4997540;28;20846;-66
2023/09/23 12:10:55;;;;;;;1.50;1.23;;;20.20;1.00;;;;;;4997288;28;20923;-67
2023/09/23 12:13:24;;;;;;;1.33;0.87;;;19.80;1.00;;;;;;5015790;28;20418;-69
2023/09/23 12:15:52;;;;;;;2.80;1.10;;;19.90;1.00;;;;;;4998592;28;20407;-68
2023/09/23 12:18:18;;;;;;;1.80;1.00;;;20.20;1.00;;;;;;4998244;28;20404;-67
2023/09/23 12:20:45;;;;;;;8.63;1.40;;;20.70;1.00;;;;;;4996736;28;20453;-68
2023/09/23 12:23:15;;;;;;;2.33;1.23;;;20.90;1.00;;;;;;5015742;28;20179;-67
2023/09/23 12:25:42;;;;;;;1.93;0.97;;;20.60;1.00;;;;;;5015551;28;20422;-68
2023/09/23 12:28:09;;;;;;;3.27;1.20;;;19.80;1.00;;;;;;4998118;28;20783;-67
2023/09/23 12:30:36;;;;;;;1.53;0.90;;;19.40;1.00;;;;;;4997397;28;20422;-67
2023/09/23 12:33:03;;;;;;;1.40;1.20;;;19.00;1.00;;;;;;5015224;28;20431;-67
2023/09/23 12:35:30;;;;;;;7.20;1.77;;;18.80;1.00;;;;;;4997906;28;20443;-67
2023/09/23 12:37:56;;;;;;;4.80;1.20;;;18.50;1.00;;;;;;4997375;28;20426;-67
2023/09/23 12:40:23;;;;;;;2.17;1.40;;;18.40;1.00;;;;;;4996720;28;20820;-68
2023/09/23 12:42:49;;;;;;;1.80;1.50;;;18.60;1.00;;;;;;5015262;28;20675;-67
2023/09/23 12:45:16;;;;;;;1.30;1.20;;;19.70;1.00;;;;;;4997339;28;20455;-67
2023/09/23 12:47:46;;;;;;;4.93;1.20;;;20.80;1.00;;;;;;5015109;28;20625;-68